Time,TemperatureF,DewpointF,PressureIn,WindDirection,WindDirectionDegrees,WindSpeedMPH,WindSpeedGustMPH,Humidity,HourlyPrecipIn,Conditions,Clouds,dailyrainin,SolarRadiationWatts/m^2,SoftwareType,DateUTC
2013-05-31 00:02:00,68.0,59.0,-100.00,NNW,342,1.0,3.0,73,0.00,,,0.00,0.000000,,2013-05-31 04:02:00,
2013-05-31 00:33:00,69.0,60.0,-100.00,NNW,336,2.0,4.0,73,0.00,,,0.00,0.000000,,2013-05-31 04:33:00,
2013-05-31 00:43:00,69.0,60.0,-100.00,NNW,336,2.0,4.0,73,0.00,,,0.00,0.000000,,2013-05-31 04:43:00,
2013-05-31 00:53:00,69.0,60.0,-100.00,NNW,336,2.0,4.0,73,0.00,,,0.00,0.000000,,2013-05-31 04:53:00,
2013-05-31 01:02:00,69.0,60.0,-100.00,NNW,336,2.0,4.0,73,0.00,,,0.00,0.000000,,2013-05-31 05:02:00,
2013-05-31 01:32:00,69.0,60.0,-100.00,East,95,2.0,4.0,73,0.00,,,0.00,0.000000,,2013-05-31 05:32:00,
2013-05-31 01:42:00,69.0,60.0,-100.00,East,95,2.0,4.0,73,0.00,,,0.00,0.000000,,2013-05-31 05:42:00,
2013-05-31 01:52:00,69.0,60.0,-100.00,East,95,2.0,4.0,73,0.00,,,0.00,0.000000,,2013-05-31 05:52:00,
2013-05-31 02:02:00,69.0,60.0,-100.00,East,95,2.0,4.0,73,0.00,,,0.00,0.000000,,2013-05-31 06:02:00,
2013-05-31 02:32:00,69.0,59.0,-100.00,NW,326,1.0,2.0,71,0.00,,,0.00,0.000000,,2013-05-31 06:32:00,
2013-05-31 02:42:00,69.0,59.0,-100.00,NW,326,1.0,2.0,71,0.00,,,0.00,0.000000,,2013-05-31 06:42:00,
2013-05-31 02:52:00,69.0,59.0,-100.00,NW,326,1.0,2.0,71,0.00,,,0.00,0.000000,,2013-05-31 06:52:00,
2013-05-31 03:02:00,69.0,59.0,-100.00,NW,326,1.0,2.0,71,0.00,,,0.00,0.000000,,2013-05-31 07:02:00,
2013-05-31 03:32:00,67.0,60.0,-100.00,ESE,112,2.0,5.0,78,0.01,,,0.01,0.000000,,2013-05-31 07:32:00,
2013-05-31 03:42:00,67.0,60.0,-100.00,ESE,112,2.0,5.0,78,0.01,,,0.01,0.000000,,2013-05-31 07:42:00,
2013-05-31 03:53:00,67.0,60.0,-100.00,ESE,112,2.0,5.0,78,0.01,,,0.01,0.000000,,2013-05-31 07:53:00,
2013-05-31 04:02:00,67.0,60.0,-100.00,ESE,112,2.0,5.0,78,0.01,,,0.01,0.000000,,2013-05-31 08:02:00,
2013-05-31 04:32:00,66.0,64.0,-100.00,NNW,338,1.0,2.0,92,0.01,,,0.02,0.000000,,2013-05-31 08:32:00,
2013-05-31 04:42:00,66.0,64.0,-100.00,NNW,338,1.0,2.0,92,0.01,,,0.02,0.000000,,2013-05-31 08:42:00,
2013-05-31 04:52:00,66.0,64.0,-100.00,NNW,338,1.0,2.0,92,0.01,,,0.02,0.000000,,2013-05-31 08:52:00,
2013-05-31 05:01:00,66.0,64.0,-100.00,NNW,338,1.0,2.0,92,0.01,,,0.02,0.000000,,2013-05-31 09:01:00,
2013-05-31 05:32:00,65.0,63.0,-100.00,East,89,1.0,2.0,93,0.00,,,0.02,0.000000,,2013-05-31 09:32:00,
2013-05-31 05:43:00,65.0,63.0,-100.00,East,89,1.0,2.0,93,0.00,,,0.02,0.000000,,2013-05-31 09:43:00,
2013-05-31 05:53:00,65.0,63.0,-100.00,East,89,1.0,2.0,93,0.00,,,0.02,0.000000,,2013-05-31 09:53:00,
2013-05-31 06:02:00,65.0,63.0,-100.00,East,89,1.0,2.0,93,0.00,,,0.02,0.000000,,2013-05-31 10:02:00,
2013-05-31 06:33:00,65.0,64.0,-100.00,East,81,0.0,1.0,95,0.00,,,0.02,0.000000,,2013-05-31 10:33:00,
2013-05-31 06:42:00,65.0,64.0,-100.00,East,81,0.0,1.0,95,0.00,,,0.02,0.000000,,2013-05-31 10:42:00,
2013-05-31 06:52:00,65.0,64.0,-100.00,East,81,0.0,1.0,95,0.00,,,0.02,0.000000,,2013-05-31 10:52:00,
2013-05-31 07:02:00,65.0,64.0,-100.00,East,81,0.0,1.0,95,0.00,,,0.02,0.000000,,2013-05-31 11:02:00,
2013-05-31 07:32:00,65.0,64.0,-100.00,SSW,193,1.0,2.0,96,0.00,,,0.02,6.000000,,2013-05-31 11:32:00,
2013-05-31 07:42:00,65.0,64.0,-100.00,SSW,193,1.0,2.0,96,0.00,,,0.02,6.000000,,2013-05-31 11:42:00,
2013-05-31 07:52:00,65.0,64.0,-100.00,SSW,193,1.0,2.0,96,0.00,,,0.02,6.000000,,2013-05-31 11:52:00,
2013-05-31 08:01:00,65.0,64.0,-100.00,SSW,193,1.0,2.0,96,0.00,,,0.02,6.000000,,2013-05-31 12:01:00,
2013-05-31 08:32:00,67.0,66.0,-100.00,SE,126,1.0,2.0,95,0.00,,,0.02,77.000000,,2013-05-31 12:32:00,
2013-05-31 08:42:00,67.0,66.0,-100.00,SE,126,1.0,2.0,95,0.00,,,0.02,77.000000,,2013-05-31 12:42:00,
2013-05-31 08:52:00,67.0,66.0,-100.00,SE,126,1.0,2.0,95,0.00,,,0.02,77.000000,,2013-05-31 12:52:00,
2013-05-31 09:01:00,67.0,66.0,-100.00,SE,126,1.0,2.0,95,0.00,,,0.02,77.000000,,2013-05-31 13:01:00,
2013-05-31 09:32:00,72.0,68.0,-100.00,SE,144,1.0,4.0,86,0.00,,,-99.99,293.000000,,2013-05-31 13:32:00,
2013-05-31 09:42:00,72.0,68.0,-100.00,SE,144,1.0,4.0,86,0.00,,,-99.99,293.000000,,2013-05-31 13:42:00,
2013-05-31 09:52:00,72.0,68.0,-100.00,SE,144,1.0,4.0,86,0.00,,,-99.99,293.000000,,2013-05-31 13:52:00,
2013-05-31 10:02:00,72.0,68.0,-100.00,SE,144,1.0,4.0,86,0.00,,,-99.99,293.000000,,2013-05-31 14:02:00,
2013-05-31 10:32:00,79.0,72.0,-100.00,SE,126,2.0,4.0,79,0.00,,,0.02,590.000000,,2013-05-31 14:32:00,
2013-05-31 10:42:00,79.0,72.0,-100.00,SE,126,2.0,4.0,79,0.00,,,0.02,590.000000,,2013-05-31 14:42:00,
2013-05-31 10:52:00,79.0,72.0,-100.00,SE,126,2.0,4.0,79,0.00,,,0.02,590.000000,,2013-05-31 14:52:00,
2013-05-31 11:01:00,79.0,72.0,-100.00,SE,126,2.0,4.0,79,0.00,,,0.02,590.000000,,2013-05-31 15:01:00,
2013-05-31 11:33:00,79.0,68.0,-100.00,South,172,2.0,5.0,69,0.00,,,0.02,642.000000,,2013-05-31 15:33:00,
2013-05-31 11:43:00,79.0,68.0,-100.00,South,172,2.0,5.0,69,0.00,,,0.02,642.000000,,2013-05-31 15:43:00,
2013-05-31 11:53:00,79.0,68.0,-100.00,South,172,2.0,5.0,69,0.00,,,0.02,642.000000,,2013-05-31 15:53:00,
2013-05-31 12:03:00,79.0,68.0,-100.00,South,172,2.0,5.0,69,0.00,,,0.02,642.000000,,2013-05-31 16:03:00,
2013-05-31 12:33:00,83.0,66.0,-100.00,SE,146,3.0,6.0,57,0.00,,,0.02,867.000000,,2013-05-31 16:33:00,
2013-05-31 12:42:00,83.0,66.0,-100.00,SE,146,3.0,6.0,57,0.00,,,0.02,867.000000,,2013-05-31 16:42:00,
2013-05-31 12:53:00,83.0,66.0,-100.00,SE,146,3.0,6.0,57,0.00,,,0.02,867.000000,,2013-05-31 16:53:00,
2013-05-31 13:02:00,83.0,66.0,-100.00,SE,146,3.0,6.0,57,0.00,,,0.02,867.000000,,2013-05-31 17:02:00,
2013-05-31 13:32:00,82.0,64.0,-100.00,SSE,158,2.0,7.0,55,0.00,,,0.02,708.000000,,2013-05-31 17:32:00,
2013-05-31 13:42:00,82.0,64.0,-100.00,SSE,158,2.0,7.0,55,0.00,,,0.02,708.000000,,2013-05-31 17:42:00,
2013-05-31 13:52:00,82.0,64.0,-100.00,SSE,158,2.0,7.0,55,0.00,,,0.02,708.000000,,2013-05-31 17:52:00,
2013-05-31 14:02:00,82.0,64.0,-100.00,SSE,158,2.0,7.0,55,0.00,,,0.02,708.000000,,2013-05-31 18:02:00,
2013-05-31 14:32:00,83.0,65.0,-100.00,ESE,122,3.0,8.0,55,0.00,,,0.02,939.000000,,2013-05-31 18:32:00,
2013-05-31 14:42:00,83.0,65.0,-100.00,ESE,122,3.0,8.0,55,0.00,,,0.02,939.000000,,2013-05-31 18:42:00,
2013-05-31 14:52:00,83.0,65.0,-100.00,ESE,122,3.0,8.0,55,0.00,,,0.02,939.000000,,2013-05-31 18:52:00,
2013-05-31 15:02:00,83.0,65.0,-100.00,ESE,122,3.0,8.0,55,0.00,,,0.02,939.000000,,2013-05-31 19:02:00,
2013-05-31 15:32:00,85.0,65.0,-100.00,SE,134,3.0,6.0,51,0.00,,,0.02,830.000000,,2013-05-31 19:32:00,
2013-05-31 15:42:00,85.0,65.0,-100.00,SE,134,3.0,6.0,51,0.00,,,0.02,830.000000,,2013-05-31 19:42:00,
2013-05-31 15:52:00,85.0,65.0,-100.00,SE,134,3.0,6.0,51,0.00,,,0.02,830.000000,,2013-05-31 19:52:00,
2013-05-31 16:02:00,85.0,65.0,-100.00,SE,134,3.0,6.0,51,0.00,,,0.02,830.000000,,2013-05-31 20:02:00,
2013-05-31 16:32:00,85.0,65.0,-100.00,SSE,165,2.0,5.0,52,0.00,,,0.02,949.000000,,2013-05-31 20:32:00,
2013-05-31 16:42:00,85.0,65.0,-100.00,SSE,165,2.0,5.0,52,0.00,,,0.02,949.000000,,2013-05-31 20:42:00,
2013-05-31 16:52:00,85.0,65.0,-100.00,SSE,165,2.0,5.0,52,0.00,,,0.02,949.000000,,2013-05-31 20:52:00,
2013-05-31 17:01:00,85.0,65.0,-100.00,SSE,165,2.0,5.0,52,0.00,,,0.02,949.000000,,2013-05-31 21:01:00,
2013-05-31 17:33:00,81.0,63.0,-100.00,SE,125,2.0,5.0,55,0.00,,,0.02,467.000000,,2013-05-31 21:33:00,
2013-05-31 17:43:00,81.0,63.0,-100.00,SE,125,2.0,5.0,55,0.00,,,0.02,467.000000,,2013-05-31 21:43:00,
2013-05-31 17:54:00,81.0,63.0,-100.00,SE,125,2.0,5.0,55,0.00,,,0.02,467.000000,,2013-05-31 21:54:00,
2013-05-31 18:03:00,81.0,63.0,-100.00,SE,125,2.0,5.0,55,0.00,,,0.02,467.000000,,2013-05-31 22:03:00,
2013-05-31 18:33:00,82.0,63.0,-100.00,SE,133,2.0,6.0,52,0.00,,,0.02,621.000000,,2013-05-31 22:33:00,
2013-05-31 18:42:00,82.0,63.0,-100.00,SE,133,2.0,6.0,52,0.00,,,0.02,621.000000,,2013-05-31 22:42:00,
2013-05-31 18:53:00,82.0,63.0,-100.00,SE,133,2.0,6.0,52,0.00,,,0.02,621.000000,,2013-05-31 22:53:00,
2013-05-31 19:02:00,82.0,63.0,-100.00,SE,133,2.0,6.0,52,0.00,,,0.02,621.000000,,2013-05-31 23:02:00,
2013-05-31 19:32:00,77.0,62.0,-100.00,SSE,150,1.0,4.0,59,0.00,,,0.02,201.000000,,2013-05-31 23:32:00,
2013-05-31 19:42:00,77.0,62.0,-100.00,SSE,150,1.0,4.0,59,0.00,,,0.02,201.000000,,2013-05-31 23:42:00,
2013-05-31 19:52:00,77.0,62.0,-100.00,SSE,150,1.0,4.0,59,0.00,,,0.02,201.000000,,2013-05-31 23:52:00,
2013-05-31 20:01:00,77.0,62.0,-100.00,SSE,150,1.0,4.0,59,0.00,,,0.02,201.000000,,2013-06-01 00:01:00,
2013-05-31 20:22:00,74.0,62.0,-100.00,NNW,348,0.0,0.0,67,0.00,,,0.02,29.000000,,2013-06-01 00:22:00,
2013-05-31 20:32:00,74.0,62.0,-100.00,NNW,348,0.0,0.0,67,0.00,,,0.02,29.000000,,2013-06-01 00:32:00,
2013-05-31 20:42:00,74.0,62.0,-100.00,NNW,348,0.0,0.0,67,0.00,,,0.02,29.000000,,2013-06-01 00:42:00,
2013-05-31 20:52:00,74.0,62.0,-100.00,NNW,348,0.0,0.0,67,0.00,,,0.02,29.000000,,2013-06-01 00:52:00,
2013-05-31 21:01:00,74.0,62.0,-100.00,NNW,348,0.0,0.0,67,0.00,,,0.02,29.000000,,2013-06-01 01:01:00,
2013-05-31 21:32:00,71.0,62.0,-100.00,WNW,302,0.0,0.0,74,0.00,,,0.02,5.000000,,2013-06-01 01:32:00,
2013-05-31 21:42:00,71.0,62.0,-100.00,WNW,302,0.0,0.0,74,0.00,,,0.02,5.000000,,2013-06-01 01:42:00,
2013-05-31 21:52:00,71.0,62.0,-100.00,WNW,302,0.0,0.0,74,0.00,,,0.02,5.000000,,2013-06-01 01:52:00,
2013-05-31 22:02:00,71.0,62.0,-100.00,WNW,302,0.0,0.0,74,0.00,,,0.02,5.000000,,2013-06-01 02:02:00,
2013-05-31 22:32:00,71.0,62.0,-100.00,NW,323,0.0,0.0,73,0.00,,,0.02,0.000000,,2013-06-01 02:32:00,
2013-05-31 22:42:00,71.0,62.0,-100.00,NW,323,0.0,0.0,73,0.00,,,0.02,0.000000,,2013-06-01 02:42:00,
2013-05-31 22:52:00,71.0,62.0,-100.00,NW,323,0.0,0.0,73,0.00,,,0.02,0.000000,,2013-06-01 02:52:00,
2013-05-31 23:02:00,71.0,62.0,-100.00,NW,323,0.0,0.0,73,0.00,,,0.02,0.000000,,2013-06-01 03:02:00,
2013-05-31 23:33:00,69.0,61.0,-100.00,NW,317,0.0,0.0,76,0.00,,,0.02,0.000000,,2013-06-01 03:33:00,
2013-05-31 23:43:00,69.0,61.0,-100.00,NW,317,0.0,0.0,76,0.00,,,0.02,0.000000,,2013-06-01 03:43:00,
2013-05-31 23:53:00,69.0,61.0,-100.00,NW,317,0.0,0.0,76,0.00,,,0.02,0.000000,,2013-06-01 03:53:00,